sensor_id;sensor_type;location;lat;lon;timestamp;temperature;humidity
51613;DHT22;37694;51.748;14.326;2023-07-29T00:01:34;22.00;53.10
51613;DHT22;37694;51.748;14.326;2023-07-29T00:04:00;21.90;53.10
51613;DHT22;37694;51.748;14.326;2023-07-29T00:06:26;21.90;53.20
51613;DHT22;37694;51.748;14.326;2023-07-29T00:08:52;21.80;53.00
51613;DHT22;37694;51.748;14.326;2023-07-29T00:11:18;21.80;53.10
51613;DHT22;37694;51.748;14.326;2023-07-29T00:13:44;21.80;53.10
51613;DHT22;37694;51.748;14.326;2023-07-29T00:16:09;21.70;53.10
51613;DHT22;37694;51.748;14.326;2023-07-29T00:18:35;21.70;53.20
51613;DHT22;37694;51.748;14.326;2023-07-29T00:21:01;21.60;53.10
51613;DHT22;37694;51.748;14.326;2023-07-29T00:23:28;21.60;53.10
51613;DHT22;37694;51.748;14.326;2023-07-29T00:25:54;21.50;53.00
51613;DHT22;37694;51.748;14.326;2023-07-29T00:28:20;21.50;53.10
51613;DHT22;37694;51.748;14.326;2023-07-29T00:30:45;21.50;53.10
51613;DHT22;37694;51.748;14.326;2023-07-29T00:33:11;21.40;53.00
51613;DHT22;37694;51.748;14.326;2023-07-29T00:35:37;21.40;53.10
51613;DHT22;37694;51.748;14.326;2023-07-29T00:38:02;21.40;52.90
51613;DHT22;37694;51.748;14.326;2023-07-29T00:40:28;21.40;52.90
51613;DHT22;37694;51.748;14.326;2023-07-29T00:42:54;21.40;52.80
51613;DHT22;37694;51.748;14.326;2023-07-29T00:45:20;21.30;52.90
51613;DHT22;37694;51.748;14.326;2023-07-29T00:47:46;21.30;53.20
51613;DHT22;37694;51.748;14.326;2023-07-29T00:50:14;21.30;53.30
51613;DHT22;37694;51.748;14.326;2023-07-29T00:52:41;21.30;53.50
51613;DHT22;37694;51.748;14.326;2023-07-29T00:55:07;21.30;53.80
51613;DHT22;37694;51.748;14.326;2023-07-29T00:57:33;21.30;54.10
51613;DHT22;37694;51.748;14.326;2023-07-29T01:00:00;21.40;54.80
51613;DHT22;37694;51.748;14.326;2023-07-29T01:02:26;21.60;55.00
51613;DHT22;37694;51.748;14.326;2023-07-29T01:04:56;21.80;55.30
51613;DHT22;37694;51.748;14.326;2023-07-29T01:07:49;22.00;55.00
51613;DHT22;37694;51.748;14.326;2023-07-29T01:10:35;22.20;55.00
51613;DHT22;37694;51.748;14.326;2023-07-29T01:13:10;22.40;55.20
51613;DHT22;37694;51.748;14.326;2023-07-29T01:16:01;22.50;55.10
51613;DHT22;37694;51.748;14.326;2023-07-29T01:18:32;22.60;55.10
51613;DHT22;37694;51.748;14.326;2023-07-29T01:21:03;22.70;55.50
51613;DHT22;37694;51.748;14.326;2023-07-29T01:23:31;22.80;55.50
51613;DHT22;37694;51.748;14.326;2023-07-29T01:25:56;22.90;55.50
51613;DHT22;37694;51.748;14.326;2023-07-29T01:28:23;22.90;55.90
51613;DHT22;37694;51.748;14.326;2023-07-29T01:30:51;22.90;54.90
51613;DHT22;37694;51.748;14.326;2023-07-29T01:33:26;23.00;54.50
51613;DHT22;37694;51.748;14.326;2023-07-29T01:36:00;23.10;54.20
51613;DHT22;37694;51.748;14.326;2023-07-29T01:38:33;23.10;54.20
51613;DHT22;37694;51.748;14.326;2023-07-29T01:41:03;23.20;54.30
51613;DHT22;37694;51.748;14.326;2023-07-29T01:43:32;23.30;54.20
51613;DHT22;37694;51.748;14.326;2023-07-29T01:45:58;23.30;54.10
51613;DHT22;37694;51.748;14.326;2023-07-29T01:48:24;23.30;53.90
51613;DHT22;37694;51.748;14.326;2023-07-29T01:50:50;23.40;53.80
51613;DHT22;37694;51.748;14.326;2023-07-29T01:53:22;23.40;53.90
51613;DHT22;37694;51.748;14.326;2023-07-29T01:55:47;23.50;53.60
51613;DHT22;37694;51.748;14.326;2023-07-29T01:58:13;23.50;53.60
51613;DHT22;37694;51.748;14.326;2023-07-29T02:00:39;23.60;53.60
51613;DHT22;37694;51.748;14.326;2023-07-29T02:03:05;23.60;53.50
51613;DHT22;37694;51.748;14.326;2023-07-29T02:05:31;23.60;53.40
51613;DHT22;37694;51.748;14.326;2023-07-29T02:07:57;23.60;53.30
51613;DHT22;37694;51.748;14.326;2023-07-29T02:10:22;23.70;53.40
51613;DHT22;37694;51.748;14.326;2023-07-29T02:12:48;23.70;53.40
51613;DHT22;37694;51.748;14.326;2023-07-29T02:15:14;23.70;53.30
51613;DHT22;37694;51.748;14.326;2023-07-29T02:17:41;23.70;53.30
51613;DHT22;37694;51.748;14.326;2023-07-29T02:20:07;23.70;53.20
51613;DHT22;37694;51.748;14.326;2023-07-29T02:22:34;23.80;53.30
51613;DHT22;37694;51.748;14.326;2023-07-29T02:24:59;23.80;53.20
51613;DHT22;37694;51.748;14.326;2023-07-29T02:27:26;23.80;53.20
51613;DHT22;37694;51.748;14.326;2023-07-29T02:29:53;23.80;53.20
51613;DHT22;37694;51.748;14.326;2023-07-29T02:32:19;23.90;53.20
51613;DHT22;37694;51.748;14.326;2023-07-29T02:34:45;23.90;53.20
51613;DHT22;37694;51.748;14.326;2023-07-29T02:37:10;23.90;53.10
51613;DHT22;37694;51.748;14.326;2023-07-29T02:39:37;23.90;53.10
51613;DHT22;37694;51.748;14.326;2023-07-29T02:42:03;23.90;53.20
51613;DHT22;37694;51.748;14.326;2023-07-29T02:44:29;23.90;53.10
51613;DHT22;37694;51.748;14.326;2023-07-29T02:46:55;24.00;53.10
51613;DHT22;37694;51.748;14.326;2023-07-29T02:49:22;24.00;53.10
51613;DHT22;37694;51.748;14.326;2023-07-29T02:51:47;24.00;53.00
51613;DHT22;37694;51.748;14.326;2023-07-29T02:54:13;24.00;53.80
51613;DHT22;37694;51.748;14.326;2023-07-29T02:56:39;24.00;52.90
51613;DHT22;37694;51.748;14.326;2023-07-29T02:59:04;24.00;52.90
51613;DHT22;37694;51.748;14.326;2023-07-29T03:01:30;24.10;53.00
51613;DHT22;37694;51.748;14.326;2023-07-29T03:03:56;24.10;53.00
51613;DHT22;37694;51.748;14.326;2023-07-29T03:06:22;24.10;52.90
51613;DHT22;37694;51.748;14.326;2023-07-29T03:08:48;24.10;52.90
51613;DHT22;37694;51.748;14.326;2023-07-29T03:11:15;24.10;52.90
51613;DHT22;37694;51.748;14.326;2023-07-29T03:13:41;24.10;53.00
51613;DHT22;37694;51.748;14.326;2023-07-29T03:16:14;24.10;52.90
51613;DHT22;37694;51.748;14.326;2023-07-29T03:18:41;24.10;52.90
51613;DHT22;37694;51.748;14.326;2023-07-29T03:21:07;24.10;52.90
51613;DHT22;37694;51.748;14.326;2023-07-29T03:23:34;24.20;52.90
51613;DHT22;37694;51.748;14.326;2023-07-29T03:26:01;24.20;52.90
51613;DHT22;37694;51.748;14.326;2023-07-29T03:28:32;24.20;52.90
51613;DHT22;37694;51.748;14.326;2023-07-29T03:30:58;24.20;52.80
51613;DHT22;37694;51.748;14.326;2023-07-29T03:33:25;24.20;52.90
51613;DHT22;37694;51.748;14.326;2023-07-29T03:35:51;24.20;52.80
51613;DHT22;37694;51.748;14.326;2023-07-29T03:38:17;24.20;52.90
51613;DHT22;37694;51.748;14.326;2023-07-29T03:40:43;24.20;52.90
51613;DHT22;37694;51.748;14.326;2023-07-29T03:43:09;24.30;53.00
51613;DHT22;37694;51.748;14.326;2023-07-29T03:45:35;24.30;53.00
51613;DHT22;37694;51.748;14.326;2023-07-29T03:48:02;24.30;52.90
51613;DHT22;37694;51.748;14.326;2023-07-29T03:50:29;24.30;52.90
51613;DHT22;37694;51.748;14.326;2023-07-29T03:52:55;24.30;52.90
51613;DHT22;37694;51.748;14.326;2023-07-29T03:55:21;24.30;52.90
51613;DHT22;37694;51.748;14.326;2023-07-29T03:57:46;24.30;52.90
51613;DHT22;37694;51.748;14.326;2023-07-29T04:00:12;24.30;52.90
51613;DHT22;37694;51.748;14.326;2023-07-29T04:02:38;24.30;52.90
51613;DHT22;37694;51.748;14.326;2023-07-29T04:05:05;24.30;52.90
51613;DHT22;37694;51.748;14.326;2023-07-29T04:07:34;24.30;52.90
51613;DHT22;37694;51.748;14.326;2023-07-29T04:10:00;24.30;52.90
51613;DHT22;37694;51.748;14.326;2023-07-29T04:12:26;24.30;52.80
51613;DHT22;37694;51.748;14.326;2023-07-29T04:14:52;24.30;52.80
51613;DHT22;37694;51.748;14.326;2023-07-29T04:17:18;24.30;52.80
51613;DHT22;37694;51.748;14.326;2023-07-29T04:19:43;24.30;52.80
51613;DHT22;37694;51.748;14.326;2023-07-29T04:22:09;24.40;52.80
51613;DHT22;37694;51.748;14.326;2023-07-29T04:24:35;24.30;52.80
51613;DHT22;37694;51.748;14.326;2023-07-29T04:27:00;24.40;52.80
51613;DHT22;37694;51.748;14.326;2023-07-29T04:29:26;24.40;52.90
51613;DHT22;37694;51.748;14.326;2023-07-29T04:31:52;24.40;52.80
51613;DHT22;37694;51.748;14.326;2023-07-29T04:34:18;24.40;52.80
51613;DHT22;37694;51.748;14.326;2023-07-29T04:36:45;24.40;52.80
51613;DHT22;37694;51.748;14.326;2023-07-29T04:39:11;24.50;52.80
51613;DHT22;37694;51.748;14.326;2023-07-29T04:41:37;24.40;52.80
51613;DHT22;37694;51.748;14.326;2023-07-29T04:44:02;24.40;53.00
51613;DHT22;37694;51.748;14.326;2023-07-29T04:46:28;24.40;53.10
51613;DHT22;37694;51.748;14.326;2023-07-29T04:48:54;24.50;53.20
51613;DHT22;37694;51.748;14.326;2023-07-29T04:51:19;24.50;53.20
51613;DHT22;37694;51.748;14.326;2023-07-29T04:53:45;24.50;53.30
51613;DHT22;37694;51.748;14.326;2023-07-29T04:56:11;24.50;53.30
51613;DHT22;37694;51.748;14.326;2023-07-29T04:58:37;24.50;53.40
51613;DHT22;37694;51.748;14.326;2023-07-29T05:01:04;24.50;53.30
51613;DHT22;37694;51.748;14.326;2023-07-29T05:03:30;24.50;53.40
51613;DHT22;37694;51.748;14.326;2023-07-29T05:05:57;24.50;53.40
51613;DHT22;37694;51.748;14.326;2023-07-29T05:08:23;24.50;53.20
51613;DHT22;37694;51.748;14.326;2023-07-29T05:10:50;24.50;53.30
51613;DHT22;37694;51.748;14.326;2023-07-29T05:13:16;24.50;53.20
51613;DHT22;37694;51.748;14.326;2023-07-29T05:15:42;24.50;53.10
51613;DHT22;37694;51.748;14.326;2023-07-29T05:18:08;24.60;53.30
51613;DHT22;37694;51.748;14.326;2023-07-29T05:20:33;24.60;53.10
51613;DHT22;37694;51.748;14.326;2023-07-29T05:22:59;24.60;53.00
51613;DHT22;37694;51.748;14.326;2023-07-29T05:25:26;24.60;53.00
51613;DHT22;37694;51.748;14.326;2023-07-29T05:27:51;24.60;53.10
51613;DHT22;37694;51.748;14.326;2023-07-29T05:30:17;24.60;53.10
51613;DHT22;37694;51.748;14.326;2023-07-29T05:32:43;24.70;53.20
51613;DHT22;37694;51.748;14.326;2023-07-29T05:35:08;24.70;53.10
51613;DHT22;37694;51.748;14.326;2023-07-29T05:37:37;24.70;53.10
51613;DHT22;37694;51.748;14.326;2023-07-29T05:40:03;24.70;53.30
51613;DHT22;37694;51.748;14.326;2023-07-29T05:42:29;24.70;53.40
51613;DHT22;37694;51.748;14.326;2023-07-29T05:44:55;24.70;53.40
51613;DHT22;37694;51.748;14.326;2023-07-29T05:47:20;24.70;53.40
51613;DHT22;37694;51.748;14.326;2023-07-29T05:49:46;24.80;53.70
51613;DHT22;37694;51.748;14.326;2023-07-29T05:52:12;24.80;53.60
51613;DHT22;37694;51.748;14.326;2023-07-29T05:54:37;24.80;53.70
51613;DHT22;37694;51.748;14.326;2023-07-29T05:57:03;24.70;53.60
51613;DHT22;37694;51.748;14.326;2023-07-29T05:59:29;24.80;53.70
51613;DHT22;37694;51.748;14.326;2023-07-29T06:01:56;24.80;53.90
51613;DHT22;37694;51.748;14.326;2023-07-29T06:04:21;24.80;53.90
51613;DHT22;37694;51.748;14.326;2023-07-29T06:06:47;24.90;53.90
51613;DHT22;37694;51.748;14.326;2023-07-29T06:09:13;24.90;53.70
51613;DHT22;37694;51.748;14.326;2023-07-29T06:11:38;24.90;53.70
51613;DHT22;37694;51.748;14.326;2023-07-29T06:14:04;24.90;53.60
51613;DHT22;37694;51.748;14.326;2023-07-29T06:16:30;24.90;53.60
51613;DHT22;37694;51.748;14.326;2023-07-29T06:18:55;24.90;53.50
51613;DHT22;37694;51.748;14.326;2023-07-29T06:21:21;24.90;53.40
51613;DHT22;37694;51.748;14.326;2023-07-29T06:23:47;24.90;53.40
51613;DHT22;37694;51.748;14.326;2023-07-29T06:26:12;24.90;54.20
51613;DHT22;37694;51.748;14.326;2023-07-29T06:28:38;24.90;53.40
51613;DHT22;37694;51.748;14.326;2023-07-29T06:31:04;25.00;53.40
51613;DHT22;37694;51.748;14.326;2023-07-29T06:33:30;25.00;53.40
51613;DHT22;37694;51.748;14.326;2023-07-29T06:35:55;25.00;53.30
51613;DHT22;37694;51.748;14.326;2023-07-29T06:38:21;25.00;53.30
51613;DHT22;37694;51.748;14.326;2023-07-29T06:40:50;25.00;53.30
51613;DHT22;37694;51.748;14.326;2023-07-29T06:43:16;25.00;53.20
51613;DHT22;37694;51.748;14.326;2023-07-29T06:45:42;25.10;53.20
51613;DHT22;37694;51.748;14.326;2023-07-29T06:48:08;25.10;53.20
51613;DHT22;37694;51.748;14.326;2023-07-29T06:50:34;25.10;53.10
51613;DHT22;37694;51.748;14.326;2023-07-29T06:53:00;25.10;53.20
51613;DHT22;37694;51.748;14.326;2023-07-29T06:55:25;25.20;54.60
51613;DHT22;37694;51.748;14.326;2023-07-29T06:57:51;25.20;55.00
51613;DHT22;37694;51.748;14.326;2023-07-29T07:00:17;25.30;55.20
51613;DHT22;37694;51.748;14.326;2023-07-29T07:02:43;25.30;55.00
51613;DHT22;37694;51.748;14.326;2023-07-29T07:05:09;25.30;55.00
51613;DHT22;37694;51.748;14.326;2023-07-29T07:07:34;25.30;54.90
51613;DHT22;37694;51.748;14.326;2023-07-29T07:10:00;25.40;54.90
51613;DHT22;37694;51.748;14.326;2023-07-29T07:12:26;25.40;55.80
51613;DHT22;37694;51.748;14.326;2023-07-29T07:14:51;25.40;56.50
51613;DHT22;37694;51.748;14.326;2023-07-29T07:17:17;25.50;56.30
51613;DHT22;37694;51.748;14.326;2023-07-29T07:19:43;25.50;56.00
51613;DHT22;37694;51.748;14.326;2023-07-29T07:22:09;25.50;55.90
51613;DHT22;37694;51.748;14.326;2023-07-29T07:24:35;25.50;56.40
51613;DHT22;37694;51.748;14.326;2023-07-29T07:27:01;25.50;55.60
51613;DHT22;37694;51.748;14.326;2023-07-29T07:29:27;25.50;55.80
51613;DHT22;37694;51.748;14.326;2023-07-29T07:31:54;25.60;55.90
51613;DHT22;37694;51.748;14.326;2023-07-29T07:34:20;25.60;55.90
51613;DHT22;37694;51.748;14.326;2023-07-29T07:36:46;25.70;56.20
51613;DHT22;37694;51.748;14.326;2023-07-29T07:39:12;25.70;56.00
51613;DHT22;37694;51.748;14.326;2023-07-29T07:41:38;25.70;56.00
51613;DHT22;37694;51.748;14.326;2023-07-29T07:44:04;25.70;55.90
51613;DHT22;37694;51.748;14.326;2023-07-29T07:46:30;25.80;55.80
51613;DHT22;37694;51.748;14.326;2023-07-29T07:48:55;25.80;55.70
51613;DHT22;37694;51.748;14.326;2023-07-29T07:51:21;25.80;55.50
51613;DHT22;37694;51.748;14.326;2023-07-29T07:53:46;25.80;55.20
51613;DHT22;37694;51.748;14.326;2023-07-29T07:56:12;25.80;55.30
51613;DHT22;37694;51.748;14.326;2023-07-29T07:58:38;25.90;55.30
51613;DHT22;37694;51.748;14.326;2023-07-29T08:01:05;25.80;56.10
51613;DHT22;37694;51.748;14.326;2023-07-29T08:03:31;25.80;55.30
51613;DHT22;37694;51.748;14.326;2023-07-29T08:05:57;25.80;55.10
51613;DHT22;37694;51.748;14.326;2023-07-29T08:08:24;25.90;55.20
51613;DHT22;37694;51.748;14.326;2023-07-29T08:10:50;25.90;55.40
51613;DHT22;37694;51.748;14.326;2023-07-29T08:13:16;25.90;55.30
51613;DHT22;37694;51.748;14.326;2023-07-29T08:15:41;25.90;55.40
51613;DHT22;37694;51.748;14.326;2023-07-29T08:18:10;25.90;55.30
51613;DHT22;37694;51.748;14.326;2023-07-29T08:20:36;25.90;55.30
51613;DHT22;37694;51.748;14.326;2023-07-29T08:23:02;25.90;56.00
51613;DHT22;37694;51.748;14.326;2023-07-29T08:25:29;25.90;55.00
51613;DHT22;37694;51.748;14.326;2023-07-29T08:27:54;26.00;54.90
51613;DHT22;37694;51.748;14.326;2023-07-29T08:30:20;26.00;55.00
51613;DHT22;37694;51.748;14.326;2023-07-29T08:32:46;26.00;54.60
51613;DHT22;37694;51.748;14.326;2023-07-29T08:35:11;26.00;54.60
51613;DHT22;37694;51.748;14.326;2023-07-29T08:37:37;26.00;54.80
51613;DHT22;37694;51.748;14.326;2023-07-29T08:40:03;26.10;54.80
51613;DHT22;37694;51.748;14.326;2023-07-29T08:42:31;26.10;54.70
51613;DHT22;37694;51.748;14.326;2023-07-29T08:45:05;26.10;54.80
51613;DHT22;37694;51.748;14.326;2023-07-29T08:47:31;26.20;55.10
51613;DHT22;37694;51.748;14.326;2023-07-29T08:49:58;26.20;54.80
51613;DHT22;37694;51.748;14.326;2023-07-29T08:52:25;26.20;54.80
51613;DHT22;37694;51.748;14.326;2023-07-29T08:54:52;26.20;54.60
51613;DHT22;37694;51.748;14.326;2023-07-29T08:57:19;26.20;55.10
51613;DHT22;37694;51.748;14.326;2023-07-29T08:59:46;26.30;55.10
51613;DHT22;37694;51.748;14.326;2023-07-29T09:02:11;26.30;54.80
51613;DHT22;37694;51.748;14.326;2023-07-29T09:04:37;26.30;54.80
51613;DHT22;37694;51.748;14.326;2023-07-29T09:07:05;26.40;54.90
51613;DHT22;37694;51.748;14.326;2023-07-29T09:09:32;26.40;55.00
51613;DHT22;37694;51.748;14.326;2023-07-29T09:11:57;26.40;55.00
51613;DHT22;37694;51.748;14.326;2023-07-29T09:14:24;26.40;54.90
51613;DHT22;37694;51.748;14.326;2023-07-29T09:16:50;26.50;55.40
51613;DHT22;37694;51.748;14.326;2023-07-29T09:19:16;26.50;55.70
51613;DHT22;37694;51.748;14.326;2023-07-29T09:21:42;26.50;55.80
51613;DHT22;37694;51.748;14.326;2023-07-29T09:24:08;26.50;55.60
51613;DHT22;37694;51.748;14.326;2023-07-29T09:26:35;26.50;55.60
51613;DHT22;37694;51.748;14.326;2023-07-29T09:29:01;26.50;56.20
51613;DHT22;37694;51.748;14.326;2023-07-29T09:31:28;26.50;55.80
51613;DHT22;37694;51.748;14.326;2023-07-29T09:34:02;26.50;56.10
51613;DHT22;37694;51.748;14.326;2023-07-29T09:36:30;26.50;56.00
51613;DHT22;37694;51.748;14.326;2023-07-29T09:38:57;26.50;56.60
51613;DHT22;37694;51.748;14.326;2023-07-29T09:41:29;26.40;56.20
51613;DHT22;37694;51.748;14.326;2023-07-29T09:43:59;26.30;58.80
51613;DHT22;37694;51.748;14.326;2023-07-29T09:46:25;26.20;59.10
51613;DHT22;37694;51.748;14.326;2023-07-29T09:48:56;26.20;59.30
51613;DHT22;37694;51.748;14.326;2023-07-29T09:51:23;26.10;59.40
51613;DHT22;37694;51.748;14.326;2023-07-29T09:53:51;26.10;59.60
51613;DHT22;37694;51.748;14.326;2023-07-29T09:56:18;26.10;59.80
51613;DHT22;37694;51.748;14.326;2023-07-29T09:58:48;26.10;59.80
51613;DHT22;37694;51.748;14.326;2023-07-29T10:01:13;26.10;59.90
51613;DHT22;37694;51.748;14.326;2023-07-29T10:03:40;26.10;60.00
51613;DHT22;37694;51.748;14.326;2023-07-29T10:06:07;26.00;59.70
51613;DHT22;37694;51.748;14.326;2023-07-29T10:08:33;26.00;59.90
51613;DHT22;37694;51.748;14.326;2023-07-29T10:11:08;26.10;59.70
51613;DHT22;37694;51.748;14.326;2023-07-29T10:13:36;26.10;59.20
51613;DHT22;37694;51.748;14.326;2023-07-29T10:16:03;26.20;58.80
51613;DHT22;37694;51.748;14.326;2023-07-29T10:18:29;26.20;58.30
51613;DHT22;37694;51.748;14.326;2023-07-29T10:20:57;26.30;58.00
51613;DHT22;37694;51.748;14.326;2023-07-29T10:23:25;26.30;57.60
51613;DHT22;37694;51.748;14.326;2023-07-29T10:26:13;26.40;57.40
51613;DHT22;37694;51.748;14.326;2023-07-29T10:28:47;26.40;57.10
51613;DHT22;37694;51.748;14.326;2023-07-29T10:31:16;26.40;56.80
51613;DHT22;37694;51.748;14.326;2023-07-29T10:33:43;26.40;56.70
51613;DHT22;37694;51.748;14.326;2023-07-29T10:36:09;26.50;56.60
51613;DHT22;37694;51.748;14.326;2023-07-29T10:38:35;26.50;56.40
51613;DHT22;37694;51.748;14.326;2023-07-29T10:41:01;26.50;56.30
51613;DHT22;37694;51.748;14.326;2023-07-29T10:45:56;26.50;56.00
51613;DHT22;37694;51.748;14.326;2023-07-29T10:51:30;26.50;55.60
51613;DHT22;37694;51.748;14.326;2023-07-29T11:01:39;26.60;55.30
51613;DHT22;37694;51.748;14.326;2023-07-29T11:10:02;26.60;55.10
51613;DHT22;37694;51.748;14.326;2023-07-29T11:17:34;26.60;55.00
51613;DHT22;37694;51.748;14.326;2023-07-29T11:20:02;26.60;55.00
51613;DHT22;37694;51.748;14.326;2023-07-29T11:22:29;26.60;55.00
51613;DHT22;37694;51.748;14.326;2023-07-29T11:24:54;26.60;54.90
51613;DHT22;37694;51.748;14.326;2023-07-29T11:27:20;26.60;54.80
51613;DHT22;37694;51.748;14.326;2023-07-29T11:29:46;26.60;54.70
51613;DHT22;37694;51.748;14.326;2023-07-29T11:32:12;26.60;54.60
51613;DHT22;37694;51.748;14.326;2023-07-29T11:34:38;26.70;54.60
51613;DHT22;37694;51.748;14.326;2023-07-29T11:37:06;26.70;54.60
51613;DHT22;37694;51.748;14.326;2023-07-29T11:39:40;26.70;54.50
51613;DHT22;37694;51.748;14.326;2023-07-29T11:42:06;26.70;54.50
51613;DHT22;37694;51.748;14.326;2023-07-29T11:44:32;26.70;54.50
51613;DHT22;37694;51.748;14.326;2023-07-29T11:46:58;26.70;55.30
51613;DHT22;37694;51.748;14.326;2023-07-29T11:49:23;26.70;54.30
51613;DHT22;37694;51.748;14.326;2023-07-29T11:51:49;26.70;54.20
51613;DHT22;37694;51.748;14.326;2023-07-29T11:54:15;26.70;54.30
51613;DHT22;37694;51.748;14.326;2023-07-29T11:56:41;26.70;54.20
51613;DHT22;37694;51.748;14.326;2023-07-29T11:59:07;26.70;54.20
51613;DHT22;37694;51.748;14.326;2023-07-29T12:01:33;26.70;54.10
51613;DHT22;37694;51.748;14.326;2023-07-29T12:03:59;26.80;54.00
51613;DHT22;37694;51.748;14.326;2023-07-29T12:06:25;26.80;54.00
51613;DHT22;37694;51.748;14.326;2023-07-29T12:08:51;26.80;53.90
51613;DHT22;37694;51.748;14.326;2023-07-29T12:11:17;26.80;53.80
51613;DHT22;37694;51.748;14.326;2023-07-29T12:13:43;26.80;53.80
51613;DHT22;37694;51.748;14.326;2023-07-29T12:16:09;26.90;53.80
51613;DHT22;37694;51.748;14.326;2023-07-29T12:18:36;26.90;53.80
51613;DHT22;37694;51.748;14.326;2023-07-29T12:21:02;26.80;53.60
51613;DHT22;37694;51.748;14.326;2023-07-29T12:23:29;26.80;53.60
51613;DHT22;37694;51.748;14.326;2023-07-29T12:25:59;26.90;53.60
51613;DHT22;37694;51.748;14.326;2023-07-29T12:28:26;26.90;53.50
51613;DHT22;37694;51.748;14.326;2023-07-29T12:30:55;26.90;53.50
51613;DHT22;37694;51.748;14.326;2023-07-29T12:33:36;26.90;53.40
51613;DHT22;37694;51.748;14.326;2023-07-29T12:36:03;26.90;53.40
51613;DHT22;37694;51.748;14.326;2023-07-29T12:38:29;26.90;53.40
51613;DHT22;37694;51.748;14.326;2023-07-29T12:40:55;26.90;53.40
51613;DHT22;37694;51.748;14.326;2023-07-29T12:43:21;26.90;53.30
51613;DHT22;37694;51.748;14.326;2023-07-29T12:45:49;26.90;53.40
51613;DHT22;37694;51.748;14.326;2023-07-29T12:48:15;26.90;53.40
51613;DHT22;37694;51.748;14.326;2023-07-29T12:50:41;26.90;53.30
51613;DHT22;37694;51.748;14.326;2023-07-29T12:53:07;26.90;53.40
51613;DHT22;37694;51.748;14.326;2023-07-29T12:55:34;26.90;53.10
51613;DHT22;37694;51.748;14.326;2023-07-29T12:58:00;26.90;53.10
51613;DHT22;37694;51.748;14.326;2023-07-29T13:00:26;26.90;53.10
51613;DHT22;37694;51.748;14.326;2023-07-29T13:02:52;26.90;53.10
51613;DHT22;37694;51.748;14.326;2023-07-29T13:05:17;26.90;53.00
51613;DHT22;37694;51.748;14.326;2023-07-29T13:07:43;26.90;53.00
51613;DHT22;37694;51.748;14.326;2023-07-29T13:10:10;26.90;53.00
51613;DHT22;37694;51.748;14.326;2023-07-29T13:12:35;26.90;52.90
51613;DHT22;37694;51.748;14.326;2023-07-29T13:15:01;26.90;52.90
51613;DHT22;37694;51.748;14.326;2023-07-29T13:17:27;26.90;52.90
51613;DHT22;37694;51.748;14.326;2023-07-29T13:19:53;26.90;52.90
51613;DHT22;37694;51.748;14.326;2023-07-29T13:22:19;26.90;52.80
51613;DHT22;37694;51.748;14.326;2023-07-29T13:24:45;26.90;52.90
51613;DHT22;37694;51.748;14.326;2023-07-29T13:27:11;26.90;52.70
51613;DHT22;37694;51.748;14.326;2023-07-29T13:29:37;26.90;52.70
51613;DHT22;37694;51.748;14.326;2023-07-29T13:32:03;27.00;52.80
51613;DHT22;37694;51.748;14.326;2023-07-29T13:34:28;27.00;52.70
51613;DHT22;37694;51.748;14.326;2023-07-29T13:36:54;26.90;52.80
51613;DHT22;37694;51.748;14.326;2023-07-29T13:39:20;26.90;52.60
51613;DHT22;37694;51.748;14.326;2023-07-29T13:41:45;26.90;52.60
51613;DHT22;37694;51.748;14.326;2023-07-29T13:44:11;26.90;52.50
51613;DHT22;37694;51.748;14.326;2023-07-29T13:46:37;27.00;52.50
51613;DHT22;37694;51.748;14.326;2023-07-29T13:49:03;26.90;52.50
51613;DHT22;37694;51.748;14.326;2023-07-29T13:51:29;27.00;52.40
51613;DHT22;37694;51.748;14.326;2023-07-29T13:53:54;27.00;52.40
51613;DHT22;37694;51.748;14.326;2023-07-29T13:56:22;27.00;52.50
51613;DHT22;37694;51.748;14.326;2023-07-29T13:58:47;27.00;52.40
51613;DHT22;37694;51.748;14.326;2023-07-29T14:01:13;26.90;52.40
51613;DHT22;37694;51.748;14.326;2023-07-29T14:03:39;27.00;52.50
51613;DHT22;37694;51.748;14.326;2023-07-29T14:06:05;27.00;52.50
51613;DHT22;37694;51.748;14.326;2023-07-29T14:08:30;27.00;52.40
51613;DHT22;37694;51.748;14.326;2023-07-29T14:10:56;27.00;52.40
51613;DHT22;37694;51.748;14.326;2023-07-29T14:13:21;27.00;52.40
51613;DHT22;37694;51.748;14.326;2023-07-29T14:15:47;27.00;52.40
51613;DHT22;37694;51.748;14.326;2023-07-29T14:18:13;27.00;52.40
51613;DHT22;37694;51.748;14.326;2023-07-29T14:20:38;27.00;52.40
51613;DHT22;37694;51.748;14.326;2023-07-29T14:23:04;27.00;52.40
51613;DHT22;37694;51.748;14.326;2023-07-29T14:25:30;27.00;52.40
51613;DHT22;37694;51.748;14.326;2023-07-29T14:27:56;27.00;52.30
51613;DHT22;37694;51.748;14.326;2023-07-29T14:30:21;27.00;52.40
51613;DHT22;37694;51.748;14.326;2023-07-29T14:32:47;27.00;52.40
51613;DHT22;37694;51.748;14.326;2023-07-29T14:35:13;27.00;52.30
51613;DHT22;37694;51.748;14.326;2023-07-29T14:37:39;27.00;52.30
51613;DHT22;37694;51.748;14.326;2023-07-29T14:40:05;27.00;52.20
51613;DHT22;37694;51.748;14.326;2023-07-29T14:42:31;27.00;52.20
51613;DHT22;37694;51.748;14.326;2023-07-29T14:44:57;27.00;52.20
51613;DHT22;37694;51.748;14.326;2023-07-29T14:47:22;27.00;52.20
51613;DHT22;37694;51.748;14.326;2023-07-29T14:49:48;27.00;52.20
51613;DHT22;37694;51.748;14.326;2023-07-29T14:52:14;27.00;52.10
51613;DHT22;37694;51.748;14.326;2023-07-29T14:54:40;27.00;52.20
51613;DHT22;37694;51.748;14.326;2023-07-29T14:57:06;26.90;52.10
51613;DHT22;37694;51.748;14.326;2023-07-29T14:59:32;26.90;52.00
51613;DHT22;37694;51.748;14.326;2023-07-29T15:01:58;27.00;52.10
51613;DHT22;37694;51.748;14.326;2023-07-29T15:04:24;27.00;52.10
51613;DHT22;37694;51.748;14.326;2023-07-29T15:06:50;27.00;52.10
51613;DHT22;37694;51.748;14.326;2023-07-29T15:09:16;26.90;52.10
51613;DHT22;37694;51.748;14.326;2023-07-29T15:11:41;26.90;52.00
51613;DHT22;37694;51.748;14.326;2023-07-29T15:14:07;26.90;52.00
51613;DHT22;37694;51.748;14.326;2023-07-29T15:16:33;26.90;52.00
51613;DHT22;37694;51.748;14.326;2023-07-29T15:19:03;26.90;52.00
51613;DHT22;37694;51.748;14.326;2023-07-29T15:21:33;26.90;52.00
51613;DHT22;37694;51.748;14.326;2023-07-29T15:23:59;26.90;52.00
51613;DHT22;37694;51.748;14.326;2023-07-29T15:26:25;26.90;51.90
51613;DHT22;37694;51.748;14.326;2023-07-29T15:28:50;26.90;52.00
51613;DHT22;37694;51.748;14.326;2023-07-29T15:31:17;26.90;52.00
51613;DHT22;37694;51.748;14.326;2023-07-29T15:33:43;26.90;51.90
51613;DHT22;37694;51.748;14.326;2023-07-29T15:36:08;26.90;52.00